createdAt,value
2022-08-11T00:01:34.323Z,101362.44
2022-08-11T00:04:07.460Z,101357.13
2022-08-11T00:06:38.064Z,101355.63
2022-08-11T00:09:20.069Z,101352.38
2022-08-11T00:11:54.103Z,101348.91
2022-08-11T00:14:37.848Z,101347.97
2022-08-11T00:17:12.168Z,101356.00
2022-08-11T00:20:13.978Z,101358.69
2022-08-11T00:22:30.867Z,101362.44
2022-08-11T00:25:02.348Z,101359.75
2022-08-11T00:27:34.848Z,101357.16
2022-08-11T00:30:02.784Z,101360.56
2022-08-11T00:32:30.904Z,101356.16
2022-08-11T00:35:53.665Z,101357.28
2022-08-11T00:37:54.704Z,101355.47
2022-08-11T00:40:47.672Z,101359.47
2022-08-11T00:43:20.298Z,101361.28
2022-08-11T00:46:16.763Z,101360.72
2022-08-11T00:49:13.081Z,101360.00
2022-08-11T00:52:21.991Z,101357.41
2022-08-11T00:55:01.083Z,101353.06
2022-08-11T00:57:51.614Z,101356.50
2022-08-11T01:00:25.052Z,101355.06
2022-08-11T01:02:52.112Z,101364.16
2022-08-11T01:05:56.844Z,101369.66
2022-08-11T01:08:35.929Z,101372.53
2022-08-11T01:11:23.640Z,101365.53
2022-08-11T01:14:33.714Z,101379.81
2022-08-11T01:17:32.394Z,101380.91
2022-08-11T01:20:47.639Z,101375.00
2022-08-11T01:23:23.495Z,101374.31
2022-08-11T01:26:28.027Z,101376.97
2022-08-11T01:29:17.096Z,101372.63
2022-08-11T01:32:10.183Z,101368.34
2022-08-11T01:35:05.304Z,101363.94
2022-08-11T01:37:58.245Z,101377.47
2022-08-11T01:40:38.938Z,101374.06
2022-08-11T01:44:02.204Z,101375.00
2022-08-11T01:46:44.032Z,101370.72
2022-08-11T01:50:08.228Z,101371.69
2022-08-11T01:52:43.359Z,101376.31
2022-08-11T01:55:58.100Z,101375.53
2022-08-11T01:58:43.875Z,101383.56
2022-08-11T02:01:26.646Z,101377.44
2022-08-11T02:04:44.621Z,101375.75
2022-08-11T02:07:43.229Z,101375.97
2022-08-11T02:11:06.207Z,101372.59
2022-08-11T02:13:52.848Z,101370.09
2022-08-11T02:16:44.619Z,101378.06
2022-08-11T02:19:36.253Z,101376.38
2022-08-11T02:22:48.398Z,101377.34
2022-08-11T02:25:31.875Z,101370.16
2022-08-11T02:28:29.099Z,101372.06
2022-08-11T02:32:25.626Z,101374.75
2022-08-11T02:34:44.093Z,101370.47
2022-08-11T02:37:45.353Z,101375.00
2022-08-11T02:40:22.322Z,101374.06
2022-08-11T02:42:55.509Z,101377.66
2022-08-11T02:45:42.113Z,101373.34
2022-08-11T02:48:33.726Z,101380.69
2022-08-11T02:51:22.536Z,101379.16
2022-08-11T02:54:07.767Z,101378.00
2022-08-11T02:56:47.252Z,101374.59
2022-08-11T02:59:48.705Z,101385.44
2022-08-11T03:02:35.103Z,101379.16
2022-08-11T03:05:13.839Z,101372.94
2022-08-11T03:07:40.988Z,101371.28
2022-08-11T03:10:22.279Z,101379.44
2022-08-11T03:13:15.576Z,101382.13
2022-08-11T03:16:04.232Z,101375.03
2022-08-11T03:18:51.749Z,101373.22
2022-08-11T03:21:58.410Z,101366.19
2022-08-11T03:24:26.379Z,101371.59
2022-08-11T03:27:15.075Z,101363.56
2022-08-11T03:30:05.856Z,101360.97
2022-08-11T03:33:31.807Z,101362.78
2022-08-11T03:37:15.347Z,101363.91
2022-08-11T03:39:52.617Z,101367.38
2022-08-11T03:42:41.711Z,101364.97
2022-08-11T03:45:28.738Z,101365.78
2022-08-11T03:48:09.754Z,101368.31
2022-08-11T03:50:58.721Z,101363.91
2022-08-11T03:53:44.054Z,101370.31
2022-08-11T03:56:11.687Z,101361.50
2022-08-11T03:58:47.283Z,101371.50
2022-08-11T04:01:44.693Z,101381.44
2022-08-11T04:04:45.413Z,101384.91
2022-08-11T04:07:37.415Z,101382.38
2022-08-11T04:10:13.602Z,101388.69
2022-08-11T04:13:17.944Z,101394.06
2022-08-11T04:16:11.515Z,101396.03
2022-08-11T04:19:17.248Z,101397.06
2022-08-11T04:22:15.574Z,101395.53
2022-08-11T04:25:22.667Z,101410.66
2022-08-11T04:27:49.710Z,101406.38
2022-08-11T04:30:27.737Z,101413.50
2022-08-11T04:33:34.381Z,101413.66
2022-08-11T04:36:09.746Z,101418.25
2022-08-11T04:39:20.415Z,101414.03
2022-08-11T04:42:32.001Z,101403.44
2022-08-11T04:45:39.208Z,101413.28
2022-08-11T04:48:53.277Z,101413.34
2022-08-11T04:52:16.712Z,101416.13
2022-08-11T04:55:06.503Z,101410.97
2022-08-11T04:58:10.774Z,101410.22
2022-08-11T05:01:27.007Z,101411.16
2022-08-11T05:04:28.315Z,101411.09
2022-08-11T05:07:20.288Z,101409.66
2022-08-11T05:10:29.493Z,101413.31
2022-08-11T05:13:21.546Z,101409.72
2022-08-11T05:16:17.863Z,101407.91
2022-08-11T05:19:16.238Z,101412.44
2022-08-11T05:22:13.454Z,101408.84
2022-08-11T05:25:10.189Z,101398.06
2022-08-11T05:28:04.580Z,101398.06
2022-08-11T05:30:51.589Z,101399.88
2022-08-11T05:33:49.153Z,101405.19
2022-08-11T05:36:31.391Z,101408.72
2022-08-11T05:39:21.810Z,101413.31
2022-08-11T05:42:29.953Z,101413.16
2022-08-11T05:45:58.140Z,101413.13
2022-08-11T05:48:39.210Z,101405.94
2022-08-11T05:51:30.416Z,101412.81
2022-08-11T05:54:28.211Z,101407.56
2022-08-11T05:57:00.208Z,101411.94
2022-08-11T05:59:29.425Z,101415.38
2022-08-11T06:02:02.494Z,101408.31
2022-08-11T06:04:30.422Z,101414.78
2022-08-11T06:06:59.433Z,101417.38
2022-08-11T06:09:38.973Z,101415.78
2022-08-11T06:12:19.295Z,101425.50
2022-08-11T06:14:49.681Z,101423.22
2022-08-11T06:17:24.379Z,101422.78
2022-08-11T06:20:07.147Z,101422.97
2022-08-11T06:22:35.444Z,101432.69
2022-08-11T06:25:05.063Z,101429.09
2022-08-11T06:27:35.719Z,101429.09
2022-08-11T06:30:14.004Z,101435.38
2022-08-11T06:32:46.738Z,101430.84
2022-08-11T06:35:30.331Z,101421.88
2022-08-11T06:38:16.425Z,101426.75
2022-08-11T06:41:26.781Z,101426.56
2022-08-11T06:44:51.830Z,101426.50
2022-08-11T06:47:21.093Z,101432.44
2022-08-11T06:50:07.732Z,101427.88
2022-08-11T06:52:37.041Z,101427.69
2022-08-11T06:55:55.542Z,101425.81
2022-08-11T06:58:48.509Z,101435.47
2022-08-11T07:01:24.940Z,101436.34
2022-08-11T07:04:03.048Z,101433.31
2022-08-11T07:06:41.630Z,101434.75
2022-08-11T07:10:02.911Z,101432.88
2022-08-11T07:13:01.833Z,101432.69
2022-08-11T07:16:12.485Z,101428.09
2022-08-11T07:18:53.036Z,101427.94
2022-08-11T07:22:02.821Z,101434.09
2022-08-11T07:25:08.686Z,101430.31
2022-08-11T07:28:15.427Z,101421.13
2022-08-11T07:30:43.550Z,101421.00
2022-08-11T07:34:05.565Z,101426.28
2022-08-11T07:36:05.406Z,101419.59
2022-08-11T07:38:47.385Z,101440.81
2022-08-11T07:41:16.876Z,101432.56
2022-08-11T07:43:49.293Z,101439.59
2022-08-11T07:46:36.964Z,101432.34
2022-08-11T07:49:24.940Z,101436.69
2022-08-11T07:52:12.799Z,101439.22
2022-08-11T07:54:41.877Z,101436.75
2022-08-11T07:58:08.723Z,101441.06
2022-08-11T08:00:40.248Z,101439.59
2022-08-11T08:03:27.389Z,101440.16
2022-08-11T08:06:35.513Z,101435.97
2022-08-11T08:09:27.484Z,101433.31
2022-08-11T08:12:15.728Z,101439.31
2022-08-11T08:15:08.929Z,101439.28
2022-08-11T08:18:09.886Z,101437.81
2022-08-11T08:21:09.780Z,101442.28
2022-08-11T08:23:38.738Z,101436.38
2022-08-11T08:26:31.399Z,101438.75
2022-08-11T08:29:22.354Z,101434.88
2022-08-11T08:32:11.044Z,101438.03
2022-08-11T08:34:43.707Z,101435.63
2022-08-11T08:37:16.057Z,101432.44
2022-08-11T08:40:06.616Z,101435.19
2022-08-11T08:42:45.407Z,101431.94
2022-08-11T08:45:16.544Z,101432.19
2022-08-11T08:47:53.577Z,101435.34
2022-08-11T08:50:27.993Z,101432.66
2022-08-11T08:53:06.007Z,101437.16
2022-08-11T08:55:35.627Z,101432.38
2022-08-11T08:58:03.157Z,101424.91
2022-08-11T09:00:44.001Z,101434.31
2022-08-11T09:03:38.908Z,101422.56
2022-08-11T09:06:09.794Z,101426.09
2022-08-11T09:08:40.988Z,101421.66
2022-08-11T09:11:30.810Z,101426.53
2022-08-11T09:14:03.214Z,101431.94
2022-08-11T09:16:39.501Z,101424.66
2022-08-11T09:19:11.192Z,101421.31
2022-08-11T09:21:48.236Z,101437.84
2022-08-11T09:24:40.170Z,101420.91
2022-08-11T09:27:08.746Z,101424.56
2022-08-11T09:29:39.042Z,101423.09
2022-08-11T09:32:07.423Z,101430.25
2022-08-11T09:34:36.902Z,101425.50
2022-08-11T09:37:28.476Z,101423.84
2022-08-11T09:40:33.789Z,101426.47
2022-08-11T09:43:25.546Z,101429.16
2022-08-11T09:45:57.896Z,101436.16
2022-08-11T09:48:27.627Z,101422.16
2022-08-11T09:50:59.159Z,101434.03
2022-08-11T09:53:35.711Z,101424.56
2022-08-11T09:56:33.886Z,101433.94
2022-08-11T09:59:04.060Z,101430.44
2022-08-11T10:01:36.207Z,101441.34
2022-08-11T10:04:15.680Z,101432.53
2022-08-11T10:07:05.538Z,101428.06
2022-08-11T10:09:59.641Z,101423.59
2022-08-11T10:12:35.290Z,101425.66
2022-08-11T10:15:23.644Z,101419.16
2022-08-11T10:18:15.914Z,101436.19
2022-08-11T10:20:45.685Z,101425.00
2022-08-11T10:23:32.608Z,101436.28
2022-08-11T10:26:18.686Z,101420.84
2022-08-11T10:29:09.869Z,101417.69
2022-08-11T10:31:57.426Z,101427.97
2022-08-11T10:34:29.149Z,101436.66
2022-08-11T10:36:58.137Z,101428.50
2022-08-11T10:39:27.386Z,101432.16
2022-08-11T10:42:21.023Z,101437.41
2022-08-11T10:45:25.143Z,101434.63
2022-08-11T10:47:55.746Z,101445.28
2022-08-11T10:50:43.177Z,101435.66
2022-08-11T10:53:29.276Z,101441.22
2022-08-11T10:56:17.758Z,101430.56
2022-08-11T10:58:52.191Z,101422.66
2022-08-11T11:01:26.119Z,101442.34
2022-08-11T11:03:59.104Z,101439.31
2022-08-11T11:06:56.753Z,101438.44
2022-08-11T11:09:35.333Z,101432.38
2022-08-11T11:12:43.813Z,101428.81
2022-08-11T11:15:31.991Z,101426.09
2022-08-11T11:18:09.542Z,101428.47
2022-08-11T11:20:47.344Z,101433.16
2022-08-11T11:23:18.852Z,101423.25
2022-08-11T11:26:11.334Z,101423.81
2022-08-11T11:28:56.759Z,101422.16
2022-08-11T11:31:48.111Z,101425.84
2022-08-11T11:35:09.175Z,101427.16
2022-08-11T11:37:40.570Z,101427.41
2022-08-11T11:40:14.099Z,101438.88
2022-08-11T11:42:44.121Z,101432.09
2022-08-11T11:45:22.806Z,101433.16
2022-08-11T11:47:54.777Z,101439.63
2022-08-11T11:50:35.007Z,101435.16
2022-08-11T11:53:06.035Z,101436.06
2022-08-11T11:55:34.453Z,101423.00
2022-08-11T11:58:22.838Z,101425.50
2022-08-11T12:01:10.939Z,101424.88
2022-08-11T12:03:39.845Z,101426.13
2022-08-11T12:06:09.718Z,101422.41
2022-08-11T12:08:37.950Z,101424.84
2022-08-11T12:11:27.996Z,101416.91
2022-08-11T12:14:02.346Z,101425.38
2022-08-11T12:16:32.981Z,101415.09
2022-08-11T12:19:11.851Z,101415.09
2022-08-11T12:22:04.146Z,101411.66
2022-08-11T12:24:52.880Z,101413.66
2022-08-11T12:27:24.232Z,101411.16
2022-08-11T12:30:11.548Z,101401.94
2022-08-11T12:32:43.682Z,101412.22
2022-08-11T12:35:14.620Z,101389.22
2022-08-11T12:37:47.894Z,101409.41
2022-08-11T12:41:11.928Z,101411.97
2022-08-11T12:43:57.225Z,101406.50
2022-08-11T12:46:33.188Z,101404.41
2022-08-11T12:49:33.296Z,101404.69
2022-08-11T12:52:15.515Z,101413.28
2022-08-11T12:55:13.523Z,101412.94
2022-08-11T12:58:06.436Z,101402.53
2022-08-11T13:00:52.616Z,101396.47
2022-08-11T13:03:39.682Z,101405.72
2022-08-11T13:06:08.011Z,101405.31
2022-08-11T13:08:38.423Z,101403.50
2022-08-11T13:11:25.500Z,101398.28
2022-08-11T13:14:15.378Z,101398.19
2022-08-11T13:17:04.383Z,101399.91
2022-08-11T13:19:33.231Z,101386.75
2022-08-11T13:22:02.833Z,101395.59
2022-08-11T13:24:34.412Z,101393.53
2022-08-11T13:27:03.958Z,101390.91
2022-08-11T13:29:32.716Z,101398.72
2022-08-11T13:32:00.996Z,101379.31
2022-08-11T13:34:33.100Z,101387.28
2022-08-11T13:37:04.679Z,101386.56
2022-08-11T13:39:35.862Z,101385.81
2022-08-11T13:42:05.964Z,101380.25
2022-08-11T13:44:38.861Z,101370.97
2022-08-11T13:47:09.175Z,101367.19
2022-08-11T13:49:39.682Z,101362.34
2022-08-11T13:52:17.647Z,101371.44
2022-08-11T13:54:48.994Z,101371.00
2022-08-11T13:58:08.875Z,101369.72
2022-08-11T14:00:23.590Z,101367.16
2022-08-11T14:02:58.366Z,101364.34
2022-08-11T14:05:45.908Z,101361.66
2022-08-11T14:08:37.584Z,101367.06
2022-08-11T14:12:22.741Z,101364.94
2022-08-11T14:14:22.975Z,101365.63
2022-08-11T14:16:53.446Z,101373.06
2022-08-11T14:19:26.548Z,101379.25
2022-08-11T14:22:11.769Z,101375.13
2022-08-11T14:24:49.698Z,101373.50
2022-08-11T14:28:32.596Z,101370.47
2022-08-11T14:30:29.297Z,101363.91
2022-08-11T14:33:00.500Z,101372.69
2022-08-11T14:35:44.422Z,101368.34
2022-08-11T14:38:15.014Z,101368.69
2022-08-11T14:41:03.177Z,101360.53
2022-08-11T14:44:04.865Z,101365.94
2022-08-11T14:46:57.783Z,101353.06
2022-08-11T14:49:26.601Z,101345.38
2022-08-11T14:51:57.939Z,101335.72
2022-08-11T14:54:45.859Z,101338.16
2022-08-11T14:57:18.262Z,101341.25
2022-08-11T15:00:08.425Z,101344.31
2022-08-11T15:02:58.478Z,101339.22
2022-08-11T15:05:26.809Z,101331.53
2022-08-11T15:07:58.951Z,101330.03
2022-08-11T15:10:27.096Z,101334.53
2022-08-11T15:12:54.682Z,101327.84
2022-08-11T15:15:42.509Z,101331.50
2022-08-11T15:18:17.005Z,101333.63
2022-08-11T15:21:03.213Z,101326.94
2022-08-11T15:23:50.212Z,101325.53
2022-08-11T15:26:43.237Z,101325.16
2022-08-11T15:29:30.820Z,101329.81
2022-08-11T15:32:17.754Z,101326.66
2022-08-11T15:35:08.040Z,101320.47
2022-08-11T15:37:37.833Z,101324.28
2022-08-11T15:40:48.181Z,101325.25
2022-08-11T15:43:34.114Z,101328.34
2022-08-11T15:46:08.299Z,101318.75
2022-08-11T15:48:47.593Z,101314.69
2022-08-11T15:51:17.774Z,101314.91
2022-08-11T15:53:58.788Z,101311.00
2022-08-11T15:56:29.584Z,101318.16
2022-08-11T15:59:41.683Z,101320.56
2022-08-11T16:02:16.385Z,101313.16
2022-08-11T16:04:46.935Z,101319.09
2022-08-11T16:07:16.887Z,101321.19
2022-08-11T16:09:54.024Z,101318.94
2022-08-11T16:12:30.612Z,101319.50
2022-08-11T16:15:23.662Z,101322.28
2022-08-11T16:17:56.632Z,101317.53
2022-08-11T16:20:25.176Z,101315.66
2022-08-11T16:23:02.014Z,101310.41
2022-08-11T16:27:01.642Z,101313.38
2022-08-11T16:28:23.985Z,101309.19
2022-08-11T16:30:56.745Z,101301.84
2022-08-11T16:33:50.259Z,101301.09
2022-08-11T16:36:34.262Z,101295.81
2022-08-11T16:39:03.025Z,101293.59
2022-08-11T16:41:51.685Z,101286.66
2022-08-11T16:44:40.441Z,101290.34
2022-08-11T16:47:11.716Z,101272.84
2022-08-11T16:49:53.271Z,101280.09
2022-08-11T16:52:22.266Z,101277.47
2022-08-11T16:54:49.721Z,101279.31
2022-08-11T16:57:43.940Z,101286.00
2022-08-11T17:00:16.720Z,101278.19
2022-08-11T17:03:12.545Z,101282.53
2022-08-11T17:06:08.803Z,101280.72
2022-08-11T17:09:05.403Z,101281.59
2022-08-11T17:11:57.325Z,101276.84
2022-08-11T17:14:37.300Z,101282.88
2022-08-11T17:17:30.244Z,101290.25
2022-08-11T17:20:41.340Z,101283.94
2022-08-11T17:23:13.237Z,101280.78
2022-08-11T17:26:03.729Z,101286.81
2022-08-11T17:28:34.712Z,101285.47
2022-08-11T17:31:22.465Z,101280.22
2022-08-11T17:34:11.108Z,101273.59
2022-08-11T17:36:43.169Z,101284.22
2022-08-11T17:39:17.772Z,101286.06
2022-08-11T17:42:04.354Z,101283.47
2022-08-11T17:44:52.370Z,101278.31
2022-08-11T17:47:39.279Z,101291.16
2022-08-11T17:50:16.743Z,101283.47
2022-08-11T17:53:05.193Z,101286.16
2022-08-11T17:55:53.891Z,101292.75
2022-08-11T17:58:40.548Z,101289.78
2022-08-11T18:01:10.750Z,101293.25
2022-08-11T18:03:40.912Z,101284.88
2022-08-11T18:06:12.765Z,101284.25
2022-08-11T18:09:07.036Z,101290.44
2022-08-11T18:12:11.131Z,101288.69
2022-08-11T18:15:03.341Z,101290.19
2022-08-11T18:17:53.575Z,101289.00
2022-08-11T18:20:40.116Z,101288.69
2022-08-11T18:23:43.376Z,101296.19
2022-08-11T18:26:38.331Z,101289.63
2022-08-11T18:29:26.846Z,101284.28
2022-08-11T18:32:21.291Z,101288.69
2022-08-11T18:35:11.505Z,101294.31
2022-08-11T18:38:04.588Z,101289.16
2022-08-11T18:40:51.850Z,101291.03
2022-08-11T18:43:46.290Z,101286.03
2022-08-11T18:46:36.894Z,101295.50
2022-08-11T18:50:01.920Z,101294.47
2022-08-11T18:52:37.896Z,101288.00
2022-08-11T18:55:32.557Z,101290.84
2022-08-11T18:58:21.846Z,101294.41
2022-08-11T19:01:09.002Z,101299.28
2022-08-11T19:03:56.257Z,101293.56
2022-08-11T19:06:56.983Z,101292.78
2022-08-11T19:09:44.594Z,101299.25
2022-08-11T19:12:31.924Z,101300.66
2022-08-11T19:15:21.638Z,101307.88
2022-08-11T19:18:08.647Z,101305.44
2022-08-11T19:20:56.265Z,101312.19
2022-08-11T19:23:55.395Z,101303.13
2022-08-11T19:26:43.067Z,101307.75
2022-08-11T19:30:04.865Z,101313.53
2022-08-11T19:32:38.454Z,101319.69
2022-08-11T19:35:25.622Z,101327.34
2022-08-11T19:38:13.992Z,101326.34
2022-08-11T19:41:01.241Z,101323.03
2022-08-11T19:43:49.357Z,101323.66
2022-08-11T19:46:38.805Z,101319.03
2022-08-11T19:49:26.034Z,101329.16
2022-08-11T19:52:12.818Z,101333.66
2022-08-11T19:55:04.234Z,101330.63
2022-08-11T19:57:50.953Z,101333.00
2022-08-11T20:00:38.581Z,101343.53
2022-08-11T20:03:27.989Z,101343.06
2022-08-11T20:06:16.540Z,101354.34
2022-08-11T20:09:04.509Z,101355.59
2022-08-11T20:11:56.001Z,101356.28
2022-08-11T20:14:47.948Z,101356.09
2022-08-11T20:17:34.424Z,101367.09
2022-08-11T20:20:24.044Z,101367.72
2022-08-11T20:23:12.769Z,101371.47
2022-08-11T20:26:27.774Z,101373.06
2022-08-11T20:29:13.290Z,101363.31
2022-08-11T20:32:01.652Z,101360.84
2022-08-11T20:34:59.602Z,101361.50
2022-08-11T20:37:51.229Z,101356.56
2022-08-11T20:40:42.869Z,101373.53
2022-08-11T20:44:06.674Z,101368.56
2022-08-11T20:46:44.148Z,101375.94
2022-08-11T20:49:45.941Z,101373.19
2022-08-11T20:52:39.712Z,101381.75
2022-08-11T20:55:46.398Z,101383.50
2022-08-11T21:01:45.888Z,101389.91
2022-08-11T21:04:32.811Z,101384.88
2022-08-11T21:07:28.377Z,101382.19
2022-08-11T21:10:23.385Z,101381.06
2022-08-11T21:13:26.140Z,101379.44
2022-08-11T21:16:27.279Z,101383.75
2022-08-11T21:19:55.037Z,101380.69
2022-08-11T21:22:35.968Z,101387.44
2022-08-11T21:25:25.884Z,101382.38
2022-08-11T21:28:12.697Z,101387.56
2022-08-11T21:30:59.181Z,101378.47
2022-08-11T21:33:51.432Z,101368.25
2022-08-11T21:36:39.625Z,101378.81
2022-08-11T21:39:28.984Z,101377.97
2022-08-11T21:42:16.701Z,101371.53
2022-08-11T21:45:04.145Z,101365.97
2022-08-11T21:47:56.066Z,101374.00
2022-08-11T21:50:48.048Z,101358.88
2022-08-11T21:53:34.391Z,101365.19
2022-08-11T21:56:22.060Z,101370.38
2022-08-11T21:59:16.923Z,101358.31
2022-08-11T22:02:05.378Z,101353.53
2022-08-11T22:04:55.154Z,101354.34
2022-08-11T22:07:42.623Z,101355.88
2022-08-11T22:10:41.898Z,101368.91
2022-08-11T22:13:34.201Z,101360.88
2022-08-11T22:16:24.383Z,101354.47
2022-08-11T22:19:16.860Z,101344.22
2022-08-11T22:22:06.191Z,101345.72
2022-08-11T22:24:53.980Z,101347.91
2022-08-11T22:27:41.465Z,101357.41
2022-08-11T22:30:33.755Z,101359.38
2022-08-11T22:33:28.759Z,101353.53
2022-08-11T22:36:16.649Z,101354.84
2022-08-11T22:39:04.842Z,101343.72
2022-08-11T22:41:53.053Z,101342.44
2022-08-11T22:44:38.773Z,101352.16
2022-08-11T22:47:38.417Z,101349.19
2022-08-11T22:50:29.038Z,101353.97
2022-08-11T22:53:16.520Z,101346.66
2022-08-11T22:56:02.849Z,101353.19
2022-08-11T22:58:49.782Z,101348.47
2022-08-11T23:01:37.586Z,101345.94
2022-08-11T23:04:25.648Z,101341.91
2022-08-11T23:07:12.213Z,101349.94
2022-08-11T23:09:59.326Z,101351.28
2022-08-11T23:12:46.924Z,101353.25
2022-08-11T23:15:33.199Z,101358.53
2022-08-11T23:18:21.185Z,101344.97
2022-08-11T23:21:07.574Z,101342.13
2022-08-11T23:23:54.341Z,101344.66
2022-08-11T23:26:42.410Z,101328.81
2022-08-11T23:29:30.330Z,101343.66
2022-08-11T23:32:16.291Z,101335.47
2022-08-11T23:35:37.883Z,101332.06
2022-08-11T23:38:15.321Z,101333.59
2022-08-11T23:41:01.016Z,101333.16
2022-08-11T23:43:46.458Z,101327.25
2022-08-11T23:46:31.945Z,101330.66
2022-08-11T23:49:22.550Z,101329.72
2022-08-11T23:52:11.239Z,101325.00
2022-08-11T23:54:57.103Z,101333.88
2022-08-11T23:57:47.801Z,101336.22
